createdAt,value
2023-04-02T00:01:18.338Z,8.90
2023-04-02T00:04:14.884Z,8.90
2023-04-02T00:07:30.517Z,8.80
2023-04-02T00:10:30.350Z,8.90
2023-04-02T00:13:26.461Z,8.80
2023-04-02T00:16:17.814Z,8.80
2023-04-02T00:19:09.769Z,8.70
2023-04-02T00:21:59.276Z,8.70
2023-04-02T00:24:51.369Z,8.70
2023-04-02T00:27:38.803Z,8.60
2023-04-02T00:30:25.677Z,8.60
2023-04-02T00:33:18.972Z,8.50
2023-04-02T00:36:09.348Z,8.50
2023-04-02T00:38:59.841Z,8.50
2023-04-02T00:41:48.862Z,8.40
2023-04-02T00:44:43.388Z,8.40
2023-04-02T00:47:36.648Z,8.40
2023-04-02T00:50:30.048Z,8.40
2023-04-02T00:53:23.656Z,8.30
2023-04-02T00:56:19.298Z,8.30
2023-04-02T00:59:21.134Z,8.40
2023-04-02T01:02:28.534Z,8.40
2023-04-02T01:05:24.562Z,8.40
2023-04-02T01:08:23.811Z,8.50
2023-04-02T01:11:28.722Z,8.40
2023-04-02T01:14:26.004Z,8.50
2023-04-02T01:17:28.815Z,8.50
2023-04-02T01:20:47.368Z,8.50
2023-04-02T01:23:34.846Z,8.50
2023-04-02T01:26:33.260Z,8.50
2023-04-02T01:29:25.361Z,8.50
2023-04-02T01:32:16.086Z,8.50
2023-04-02T01:35:03.391Z,8.50
2023-04-02T01:37:56.964Z,8.50
2023-04-02T01:40:47.289Z,8.50
2023-04-02T01:43:42.296Z,8.40
2023-04-02T01:46:33.381Z,8.50
2023-04-02T01:49:23.938Z,8.50
2023-04-02T01:52:18.641Z,8.50
2023-04-02T01:55:08.665Z,8.50
2023-04-02T01:57:56.887Z,8.50
2023-04-02T02:00:51.129Z,8.60
2023-04-02T02:03:42.462Z,8.60
2023-04-02T02:06:31.603Z,8.60
2023-04-02T02:09:25.258Z,8.60
2023-04-02T02:12:15.371Z,8.60
2023-04-02T02:15:04.041Z,8.60
2023-04-02T02:17:52.501Z,8.60
2023-04-02T02:20:43.189Z,8.60
2023-04-02T02:23:31.348Z,8.60
2023-04-02T02:26:19.215Z,8.70
2023-04-02T02:29:10.014Z,8.70
2023-04-02T02:31:59.799Z,8.70
2023-04-02T02:34:51.305Z,8.70
2023-04-02T02:37:44.899Z,8.70
2023-04-02T02:40:40.768Z,8.70
2023-04-02T02:43:29.124Z,8.60
2023-04-02T02:46:21.869Z,8.60
2023-04-02T02:49:17.708Z,8.60
2023-04-02T02:52:16.906Z,8.60
2023-04-02T02:55:32.061Z,8.60
2023-04-02T02:58:31.818Z,8.60
2023-04-02T03:01:30.583Z,8.60
2023-04-02T03:04:23.819Z,8.70
2023-04-02T03:07:16.411Z,8.60
2023-04-02T03:10:12.295Z,8.70
2023-04-02T03:13:10.403Z,8.70
2023-04-02T03:16:05.140Z,8.70
2023-04-02T03:18:58.930Z,8.60
2023-04-02T03:21:53.897Z,8.60
2023-04-02T03:24:49.086Z,8.60
2023-04-02T03:27:41.970Z,8.60
2023-04-02T03:30:38.764Z,8.60
2023-04-02T03:33:32.646Z,8.60
2023-04-02T03:36:24.475Z,8.60
2023-04-02T03:39:19.718Z,8.60
2023-04-02T03:42:19.299Z,8.60
2023-04-02T03:45:14.079Z,8.60
2023-04-02T03:48:08.487Z,8.60
2023-04-02T03:51:02.024Z,8.60
2023-04-02T03:53:50.361Z,8.60
2023-04-02T03:56:41.092Z,8.50
2023-04-02T03:59:43.200Z,8.50
2023-04-02T04:02:41.619Z,8.50
2023-04-02T04:05:35.260Z,8.50
2023-04-02T04:08:28.662Z,8.40
2023-04-02T04:11:22.282Z,8.50
2023-04-02T04:14:17.248Z,8.50
2023-04-02T04:17:15.978Z,8.40
2023-04-02T04:20:17.258Z,8.40
2023-04-02T04:23:25.953Z,8.40
2023-04-02T04:26:24.898Z,8.40
2023-04-02T04:29:34.662Z,8.40
2023-04-02T04:32:32.277Z,8.40
2023-04-02T04:35:31.374Z,8.30
2023-04-02T04:38:33.702Z,8.30
2023-04-02T04:41:27.710Z,8.30
2023-04-02T04:44:22.139Z,8.30
2023-04-02T04:47:18.635Z,8.30
2023-04-02T04:50:17.517Z,8.30
2023-04-02T04:53:09.042Z,8.30
2023-04-02T04:56:12.575Z,8.20
2023-04-02T04:59:17.822Z,8.30
2023-04-02T05:02:12.967Z,8.20
2023-04-02T05:05:02.259Z,8.20
2023-04-02T05:07:54.527Z,8.20
2023-04-02T05:10:47.692Z,8.20
2023-04-02T05:13:40.413Z,8.20
2023-04-02T05:16:34.897Z,8.10
2023-04-02T05:19:30.351Z,8.10
2023-04-02T05:22:27.831Z,8.20
2023-04-02T05:25:23.461Z,8.20
2023-04-02T05:28:19.504Z,8.20
2023-04-02T05:31:13.869Z,8.20
2023-04-02T05:34:02.160Z,8.20
2023-04-02T05:36:51.324Z,8.20
2023-04-02T05:39:39.128Z,8.20
2023-04-02T05:42:30.605Z,8.20
2023-04-02T05:45:31.668Z,8.30
2023-04-02T05:48:29.346Z,8.30
2023-04-02T05:51:22.499Z,8.30
2023-04-02T05:54:21.560Z,8.30
2023-04-02T05:57:14.040Z,8.40
2023-04-02T06:00:09.249Z,8.30
2023-04-02T06:03:07.931Z,8.40
2023-04-02T06:06:03.455Z,8.40
2023-04-02T06:08:59.861Z,8.40
2023-04-02T06:11:53.038Z,8.40
2023-04-02T06:14:40.816Z,8.40
2023-04-02T06:17:30.408Z,8.40
2023-04-02T06:20:22.011Z,8.50
2023-04-02T06:23:17.952Z,8.60
2023-04-02T06:26:09.158Z,8.60
2023-04-02T06:29:07.126Z,8.60
2023-04-02T06:31:59.005Z,8.60
2023-04-02T06:34:46.921Z,8.70
2023-04-02T06:37:39.991Z,8.70
2023-04-02T06:40:43.331Z,8.70
2023-04-02T06:43:45.971Z,8.70
2023-04-02T06:46:59.236Z,8.70
2023-04-02T06:49:51.429Z,8.80
2023-04-02T06:52:45.975Z,8.80
2023-04-02T06:55:42.870Z,8.80
2023-04-02T06:58:31.298Z,8.90
2023-04-02T07:01:23.433Z,8.90
2023-04-02T07:04:11.548Z,8.90
2023-04-02T07:07:03.265Z,9.00
2023-04-02T07:09:55.256Z,9.00
2023-04-02T07:12:45.007Z,9.10
2023-04-02T07:15:33.078Z,9.10
2023-04-02T07:18:27.283Z,9.20
2023-04-02T07:21:14.900Z,9.30
2023-04-02T07:24:04.667Z,9.40
2023-04-02T07:26:52.401Z,9.50
2023-04-02T07:29:43.063Z,9.60
2023-04-02T07:32:30.661Z,9.70
2023-04-02T07:35:21.052Z,9.80
2023-04-02T07:38:08.517Z,10.00
2023-04-02T07:40:58.135Z,10.10
2023-04-02T07:43:45.850Z,10.20
2023-04-02T07:46:35.073Z,10.30
2023-04-02T07:49:23.188Z,10.30
2023-04-02T07:52:10.817Z,10.40
2023-04-02T07:54:58.457Z,10.40
2023-04-02T07:57:52.199Z,10.40
2023-04-02T08:00:39.798Z,10.40
2023-04-02T08:03:29.744Z,10.50
2023-04-02T08:06:17.559Z,10.50
2023-04-02T08:09:08.238Z,10.50
2023-04-02T08:11:55.798Z,10.70
2023-04-02T08:14:43.133Z,10.80
2023-04-02T08:17:31.924Z,10.90
2023-04-02T08:20:23.013Z,10.90
2023-04-02T08:23:18.280Z,11.00
2023-04-02T08:26:07.595Z,11.10
2023-04-02T08:28:55.029Z,11.20
2023-04-02T08:31:42.565Z,11.20
2023-04-02T08:34:30.663Z,11.30
2023-04-02T08:37:20.199Z,11.40
2023-04-02T08:40:10.349Z,11.50
2023-04-02T08:43:14.600Z,11.60
2023-04-02T08:46:10.172Z,11.70
2023-04-02T08:49:02.358Z,11.80
2023-04-02T08:51:50.280Z,11.80
2023-04-02T08:54:39.244Z,11.90
2023-04-02T08:57:37.741Z,11.90
2023-04-02T09:00:32.327Z,11.90
2023-04-02T09:03:23.029Z,12.10
2023-04-02T09:06:16.427Z,12.30
2023-04-02T09:09:05.299Z,12.40
2023-04-02T09:11:56.587Z,12.50
2023-04-02T09:14:45.922Z,12.70
2023-04-02T09:17:42.669Z,12.80
2023-04-02T09:20:38.900Z,13.00
2023-04-02T09:23:28.742Z,13.10
2023-04-02T09:26:23.829Z,13.30
2023-04-02T09:29:39.875Z,14.10
2023-04-02T09:32:40.350Z,14.70
2023-04-02T09:35:29.759Z,14.90
2023-04-02T09:38:22.134Z,14.90
2023-04-02T09:41:21.407Z,14.90
2023-04-02T09:44:24.267Z,14.80
2023-04-02T09:47:27.576Z,14.80
2023-04-02T09:50:25.695Z,14.80
2023-04-02T09:53:30.507Z,15.00
2023-04-02T09:56:21.968Z,15.40
2023-04-02T09:59:18.089Z,15.70
2023-04-02T10:02:26.423Z,15.70
2023-04-02T10:05:30.156Z,15.40
2023-04-02T10:08:28.622Z,15.10
2023-04-02T10:11:21.818Z,14.90
2023-04-02T10:14:20.510Z,14.70
2023-04-02T10:17:17.678Z,14.50
2023-04-02T10:20:13.312Z,14.20
2023-04-02T10:23:01.153Z,14.10
2023-04-02T10:25:52.801Z,14.00
2023-04-02T10:28:54.513Z,14.00
2023-04-02T10:31:51.752Z,13.90
2023-04-02T10:34:48.006Z,14.00
2023-04-02T10:38:00.237Z,14.20
2023-04-02T10:40:55.243Z,14.40
2023-04-02T10:44:19.410Z,14.70
2023-04-02T10:47:27.258Z,15.20
2023-04-02T10:50:32.683Z,15.50
2023-04-02T10:53:22.253Z,15.80
2023-04-02T10:56:13.834Z,15.90
2023-04-02T10:59:05.644Z,15.90
2023-04-02T11:01:55.135Z,15.90
2023-04-02T11:04:48.671Z,15.90
2023-04-02T11:07:51.004Z,15.80
2023-04-02T11:10:44.721Z,15.80
2023-04-02T11:13:38.808Z,15.60
2023-04-02T11:16:27.593Z,15.50
2023-04-02T11:19:27.009Z,15.40
2023-04-02T11:22:18.099Z,15.30
2023-04-02T11:25:23.523Z,15.20
2023-04-02T11:28:22.466Z,15.00
2023-04-02T11:31:23.097Z,14.90
2023-04-02T11:34:15.535Z,14.70
2023-04-02T11:37:09.836Z,14.60
2023-04-02T11:40:00.791Z,14.50
2023-04-02T11:42:51.577Z,14.60
2023-04-02T11:46:02.659Z,14.70
2023-04-02T11:48:50.203Z,14.90
2023-04-02T11:52:02.200Z,15.10
2023-04-02T11:55:01.056Z,15.10
2023-04-02T11:57:58.990Z,15.00
2023-04-02T12:01:15.109Z,15.20
2023-04-02T12:04:17.400Z,15.40
2023-04-02T12:07:35.205Z,15.70
2023-04-02T12:10:25.753Z,16.00
2023-04-02T12:13:21.740Z,16.20
2023-04-02T12:16:10.471Z,16.20
2023-04-02T12:19:00.853Z,16.00
2023-04-02T12:21:48.979Z,15.90
2023-04-02T12:24:36.802Z,15.80
2023-04-02T12:27:29.796Z,15.80
2023-04-02T12:30:22.049Z,16.00
2023-04-02T12:33:28.776Z,16.20
2023-04-02T12:36:22.984Z,16.30
2023-04-02T12:39:18.842Z,16.30
2023-04-02T12:42:06.660Z,16.20
2023-04-02T12:44:56.288Z,16.10
2023-04-02T12:47:47.506Z,15.90
2023-04-02T12:50:36.460Z,15.80
2023-04-02T12:53:27.897Z,15.60
2023-04-02T12:56:22.442Z,15.40
2023-04-02T12:59:30.164Z,15.20
2023-04-02T13:02:21.050Z,15.10
2023-04-02T13:05:11.512Z,14.90
2023-04-02T13:07:59.100Z,14.70
2023-04-02T13:10:48.425Z,14.60
2023-04-02T13:13:38.694Z,14.50
2023-04-02T13:16:31.135Z,14.30
2023-04-02T13:19:34.211Z,14.20
2023-04-02T13:22:33.008Z,14.10
2023-04-02T13:25:30.176Z,14.00
2023-04-02T13:28:17.701Z,13.90
2023-04-02T13:31:05.496Z,13.80
2023-04-02T13:33:53.080Z,13.70
2023-04-02T13:36:40.555Z,13.60
2023-04-02T13:39:30.678Z,13.50
2023-04-02T13:42:19.720Z,13.40
2023-04-02T13:45:17.545Z,13.30
2023-04-02T13:48:09.736Z,13.20
2023-04-02T13:50:57.258Z,13.20
2023-04-02T13:53:44.751Z,13.00
2023-04-02T13:56:34.603Z,13.00
2023-04-02T13:59:21.736Z,13.00
2023-04-02T14:02:14.076Z,13.10
2023-04-02T14:05:13.643Z,13.10
2023-04-02T14:08:10.030Z,13.20
2023-04-02T14:11:10.820Z,13.30
2023-04-02T14:14:21.631Z,13.20
2023-04-02T14:17:19.581Z,13.20
2023-04-02T14:20:21.855Z,13.10
2023-04-02T14:23:27.053Z,12.90
2023-04-02T14:26:24.107Z,12.70
2023-04-02T14:29:22.411Z,12.60
2023-04-02T14:32:14.951Z,12.50
2023-04-02T14:35:09.695Z,12.40
2023-04-02T14:38:07.165Z,12.40
2023-04-02T14:41:00.505Z,12.40
2023-04-02T14:43:53.647Z,12.40
2023-04-02T14:46:43.051Z,12.30
2023-04-02T14:49:40.055Z,12.30
2023-04-02T14:52:30.810Z,12.30
2023-04-02T14:55:27.856Z,12.10
2023-04-02T14:58:22.638Z,12.00
2023-04-02T15:01:16.480Z,11.80
2023-04-02T15:04:10.237Z,11.80
2023-04-02T15:07:04.535Z,11.70
2023-04-02T15:10:00.702Z,11.60
2023-04-02T15:12:50.476Z,11.60
2023-04-02T15:15:44.433Z,11.70
2023-04-02T15:18:32.579Z,11.80
2023-04-02T15:21:49.848Z,11.80
2023-04-02T15:24:56.957Z,11.90
2023-04-02T15:27:59.001Z,11.90
2023-04-02T15:30:47.369Z,11.90
2023-04-02T15:33:43.352Z,12.00
2023-04-02T15:36:46.957Z,12.00
2023-04-02T15:39:45.362Z,11.90
2023-04-02T15:42:37.780Z,11.90
2023-04-02T15:45:32.454Z,11.80
2023-04-02T15:48:36.304Z,11.70
2023-04-02T15:51:38.254Z,11.70
2023-04-02T15:54:43.644Z,11.50
2023-04-02T15:57:46.926Z,11.40
2023-04-02T16:00:37.987Z,11.30
2023-04-02T16:03:49.041Z,11.30
2023-04-02T16:06:54.302Z,11.10
2023-04-02T16:09:52.045Z,10.90
2023-04-02T16:12:42.415Z,10.80
2023-04-02T16:15:36.891Z,10.70
2023-04-02T16:18:34.508Z,10.70
2023-04-02T16:21:24.403Z,10.70
2023-04-02T16:24:14.823Z,10.70
2023-04-02T16:27:20.176Z,10.60
2023-04-02T16:30:27.373Z,10.50
2023-04-02T16:33:26.136Z,10.50
2023-04-02T16:36:23.946Z,10.40
2023-04-02T16:39:24.945Z,10.30
2023-04-02T16:42:24.835Z,10.30
2023-04-02T16:45:25.937Z,10.20
2023-04-02T16:48:23.858Z,10.00
2023-04-02T16:51:21.477Z,10.00
2023-04-02T16:54:15.267Z,9.90
2023-04-02T16:57:19.925Z,9.80
2023-04-02T17:00:18.770Z,9.80
2023-04-02T17:03:23.011Z,9.80
2023-04-02T17:06:18.629Z,9.80
2023-04-02T17:09:16.051Z,9.70
2023-04-02T17:12:13.236Z,9.70
2023-04-02T17:15:07.295Z,9.60
2023-04-02T17:17:59.791Z,9.50
2023-04-02T17:20:48.141Z,9.40
2023-04-02T17:23:55.745Z,9.30
2023-04-02T17:26:48.862Z,9.20
2023-04-02T17:29:40.163Z,9.10
2023-04-02T17:32:31.737Z,9.00
2023-04-02T17:35:24.333Z,8.90
2023-04-02T17:38:21.527Z,8.90
2023-04-02T17:41:14.509Z,8.80
2023-04-02T17:44:12.023Z,8.70
2023-04-02T17:47:08.306Z,8.70
2023-04-02T17:50:17.247Z,8.60
2023-04-02T17:53:12.789Z,8.50
2023-04-02T17:56:11.287Z,8.50
2023-04-02T17:59:12.738Z,8.50
2023-04-02T18:02:08.393Z,8.50
2023-04-02T18:05:08.710Z,8.40
2023-04-02T18:08:04.640Z,8.40
2023-04-02T18:11:04.811Z,8.30
2023-04-02T18:14:00.122Z,8.10
2023-04-02T18:16:56.913Z,8.00
2023-04-02T18:19:50.813Z,7.90
2023-04-02T18:22:45.202Z,7.80
2023-04-02T18:25:44.652Z,7.80
2023-04-02T18:28:47.208Z,7.80
2023-04-02T18:31:43.504Z,7.70
2023-04-02T18:34:51.517Z,7.70
2023-04-02T18:37:54.226Z,7.70
2023-04-02T18:40:56.685Z,7.70
2023-04-02T18:43:57.506Z,7.70
2023-04-02T18:46:51.523Z,7.70
2023-04-02T18:49:47.348Z,7.50
2023-04-02T18:52:36.240Z,7.40
2023-04-02T18:55:28.173Z,7.40
2023-04-02T18:58:22.059Z,7.30
2023-04-02T19:01:15.656Z,7.30
2023-04-02T19:04:08.176Z,7.20
2023-04-02T19:07:04.085Z,7.20
2023-04-02T19:09:53.494Z,7.20
2023-04-02T19:12:41.706Z,7.10
2023-04-02T19:15:41.212Z,7.10
2023-04-02T19:18:37.237Z,7.10
2023-04-02T19:21:35.207Z,7.00
2023-04-02T19:24:37.896Z,7.00
2023-04-02T19:27:35.649Z,6.90
2023-04-02T19:30:44.454Z,6.80
2023-04-02T19:33:43.498Z,6.80
2023-04-02T19:36:44.611Z,6.70
2023-04-02T19:39:54.156Z,6.70
2023-04-02T19:42:47.108Z,6.60
2023-04-02T19:45:39.899Z,6.60
2023-04-02T19:48:29.026Z,6.40
2023-04-02T19:51:16.577Z,6.40
2023-04-02T19:54:04.320Z,6.40
2023-04-02T19:56:53.566Z,6.40
2023-04-02T19:59:41.142Z,6.30
2023-04-02T20:02:28.690Z,6.20
2023-04-02T20:05:16.428Z,6.30
2023-04-02T20:08:03.934Z,6.30
2023-04-02T20:10:51.676Z,6.20
2023-04-02T20:13:40.660Z,6.20
2023-04-02T20:16:27.971Z,6.00
2023-04-02T20:19:15.941Z,5.90
2023-04-02T20:22:03.469Z,5.80
2023-04-02T20:24:51.113Z,5.80
2023-04-02T20:27:38.324Z,5.80
2023-04-02T20:30:27.466Z,5.70
2023-04-02T20:33:15.057Z,5.70
2023-04-02T20:36:05.759Z,5.60
2023-04-02T20:38:53.837Z,5.60
2023-04-02T20:41:41.704Z,5.50
2023-04-02T20:44:29.837Z,5.50
2023-04-02T20:47:19.497Z,5.50
2023-04-02T20:50:07.438Z,5.40
2023-04-02T20:52:55.159Z,5.30
2023-04-02T20:55:44.596Z,5.30
2023-04-02T20:58:32.070Z,5.20
2023-04-02T21:01:21.524Z,5.10
2023-04-02T21:04:10.830Z,5.10
2023-04-02T21:06:58.306Z,5.10
2023-04-02T21:09:46.102Z,5.00
2023-04-02T21:12:33.489Z,5.00
2023-04-02T21:15:21.043Z,4.90
2023-04-02T21:18:08.650Z,4.90
2023-04-02T21:21:02.141Z,4.90
2023-04-02T21:23:49.649Z,5.00
2023-04-02T21:26:39.345Z,5.00
2023-04-02T21:29:26.865Z,5.00
2023-04-02T21:32:21.203Z,5.00
2023-04-02T21:35:10.473Z,5.10
2023-04-02T21:37:59.243Z,5.10
2023-04-02T21:40:47.032Z,5.00
2023-04-02T21:43:34.194Z,5.00
2023-04-02T21:46:23.612Z,5.10
2023-04-02T21:49:12.515Z,5.10
2023-04-02T21:52:00.805Z,5.10
2023-04-02T21:54:49.634Z,5.00
2023-04-02T21:57:37.212Z,4.90
2023-04-02T22:00:26.554Z,4.90
2023-04-02T22:03:24.930Z,4.80
2023-04-02T22:06:20.068Z,4.70
2023-04-02T22:09:11.586Z,4.70
2023-04-02T22:12:01.904Z,4.70
2023-04-02T22:14:49.151Z,4.80
2023-04-02T22:17:37.871Z,4.80
2023-04-02T22:20:25.589Z,4.80
2023-04-02T22:23:13.063Z,4.70
2023-04-02T22:26:02.183Z,4.70
2023-04-02T22:28:52.773Z,4.80
2023-04-02T22:31:40.704Z,4.80
2023-04-02T22:34:28.449Z,4.80
2023-04-02T22:37:15.808Z,4.70
2023-04-02T22:40:03.488Z,4.70
2023-04-02T22:42:50.935Z,4.60
2023-04-02T22:45:39.543Z,4.70
2023-04-02T22:48:27.476Z,4.60
2023-04-02T22:51:17.173Z,4.60
2023-04-02T22:54:04.752Z,4.60
2023-04-02T22:56:52.103Z,4.60
2023-04-02T22:59:39.653Z,4.70
2023-04-02T23:02:28.769Z,4.60
2023-04-02T23:05:16.171Z,4.70
2023-04-02T23:08:03.534Z,4.70
2023-04-02T23:10:51.332Z,4.70
2023-04-02T23:13:39.643Z,4.70
2023-04-02T23:16:29.360Z,4.70
2023-04-02T23:19:18.799Z,4.70
2023-04-02T23:22:06.387Z,4.60
2023-04-02T23:24:54.848Z,4.50
2023-04-02T23:27:42.365Z,4.50
2023-04-02T23:30:29.973Z,4.50
2023-04-02T23:33:20.467Z,4.50
2023-04-02T23:36:11.233Z,4.50
2023-04-02T23:39:01.781Z,4.50
2023-04-02T23:41:49.803Z,4.50
2023-04-02T23:44:37.191Z,4.40
2023-04-02T23:47:24.816Z,4.40
2023-04-02T23:50:12.998Z,4.50
2023-04-02T23:53:01.718Z,4.50
2023-04-02T23:55:49.049Z,4.50
2023-04-02T23:58:36.911Z,4.50
